Terminal Aerodrome Forecast
Issued by NWS Portland, ME

Home | Current Version | Previous Version | Text Only | Print | Product List | Glossary On
Versions: 1 2 3 4 5 6 7 8 9 10 11 12 13 14 15 16 17
551
FTUS41 KGYX 181120
TAFPWM
TAF
KPWM 181120Z 1812/1912 02008KT 1 1/2SM -SN BR BKN006 OVC018
      TEMPO 1812/1816 5SM -SHSN OVC015
     FM181600 05010KT 2SM -SN OVC012
     FM181800 05010KT 5SM -SHSN OVC015
     FM190000 06006KT P6SM OVC012
      TEMPO 1900/1904 3SM -SHSN OVC012=

USA.gov is the U.S. government's official web portal to all federal, state and local government web resources and services.